Time;durP1;ratioP1;P1;durP2;ratioP2;P2;SDS_P1;SDS_P2;PMS_P1;PMS_P2;Temp;Humidity;BMP_temperature;BMP_pressure;BME280_temperature;BME280_humidity;BME280_pressure;Samples;Min_cycle;Max_cycle;Signal;HPM_P1;HPM_P2
2022/03/02 00:00:49;;;;;;;8.55;6.57;;;19.80;88.40;;;;;;4226300;28;20241;-78
2022/03/02 00:02:51;;;;;;;9.18;6.50;;;19.80;88.10;;;;;;4228218;28;20263;-79
2022/03/02 00:04:54;;;;;;;7.82;6.72;;;19.80;88.30;;;;;;4228676;28;20221;-79
2022/03/02 00:06:56;;;;;;;7.85;6.70;;;19.80;88.40;;;;;;4228333;28;20259;-78
2022/03/02 00:08:58;;;;;;;8.75;6.78;;;19.80;88.30;;;;;;4228361;28;20218;-78
2022/03/02 00:11:01;;;;;;;8.50;6.78;;;19.80;88.10;;;;;;4226048;28;20268;-78
2022/03/02 00:13:03;;;;;;;8.15;6.50;;;19.80;87.90;;;;;;4228214;28;20210;-79
2022/03/02 00:15:08;;;;;;;9.15;7.05;;;19.80;88.00;;;;;;4227506;28;20262;-78
2022/03/02 00:17:11;;;;;;;9.52;7.30;;;19.80;88.20;;;;;;4227871;28;20230;-78
2022/03/02 00:19:13;;;;;;;9.75;6.93;;;19.80;88.20;;;;;;4228473;28;20210;-78
2022/03/02 00:21:16;;;;;;;8.25;6.53;;;19.80;88.30;;;;;;4228236;28;20237;-78
2022/03/02 00:23:18;;;;;;;7.10;6.05;;;19.70;88.20;;;;;;4228393;28;20213;-78
2022/03/02 00:25:21;;;;;;;9.38;7.22;;;19.70;88.00;;;;;;4225202;28;20214;-78
2022/03/02 00:27:24;;;;;;;9.27;6.57;;;19.70;88.20;;;;;;4228078;28;20217;-78
2022/03/02 00:29:26;;;;;;;8.63;7.03;;;19.70;87.60;;;;;;4227851;28;20259;-78
2022/03/02 00:31:30;;;;;;;9.45;6.63;;;19.80;88.10;;;;;;4228458;28;20214;-78
2022/03/02 00:33:32;;;;;;;7.72;6.72;;;19.70;88.20;;;;;;4228609;28;20267;-78
2022/03/02 00:35:35;;;;;;;7.10;6.40;;;19.70;88.00;;;;;;4227967;28;20259;-78
2022/03/02 00:37:37;;;;;;;8.10;6.80;;;19.70;88.10;;;;;;4228175;28;20210;-78
2022/03/02 00:39:40;;;;;;;7.95;6.68;;;19.70;87.30;;;;;;4223467;28;20210;-78
2022/03/02 00:41:42;;;;;;;8.27;7.30;;;19.70;87.80;;;;;;4225186;28;20283;-78
2022/03/02 00:43:47;;;;;;;8.10;6.80;;;19.70;88.10;;;;;;4226891;28;20225;-78
2022/03/02 00:45:50;;;;;;;7.47;6.68;;;19.70;88.30;;;;;;4228028;28;20270;-78
2022/03/02 00:47:54;;;;;;;10.15;7.15;;;19.70;88.20;;;;;;4228071;28;20221;-78
2022/03/02 00:49:57;;;;;;;9.57;7.55;;;19.70;88.00;;;;;;4228089;28;20704;-78
2022/03/02 00:52:00;;;;;;;8.27;7.18;;;19.70;88.10;;;;;;4226627;28;20225;-79
2022/03/02 00:54:03;;;;;;;9.30;6.53;;;19.60;88.20;;;;;;4227873;28;20221;-78
2022/03/02 00:56:05;;;;;;;9.23;7.78;;;19.60;88.10;;;;;;4227870;28;20225;-78
2022/03/02 00:58:08;;;;;;;8.77;7.22;;;19.60;87.70;;;;;;4231032;28;20278;-78
2022/03/02 01:00:15;;;;;;;8.05;6.97;;;19.60;87.80;;;;;;4231531;28;20267;-79
2022/03/02 01:02:17;;;;;;;8.40;6.75;;;19.70;88.00;;;;;;4231618;28;20218;-78
2022/03/02 01:04:21;;;;;;;9.40;7.38;;;19.60;87.70;;;;;;4231580;28;20627;-78
2022/03/02 01:06:23;;;;;;;7.97;6.85;;;19.60;87.90;;;;;;4231236;28;20262;-78
2022/03/02 01:08:26;;;;;;;8.63;6.95;;;19.50;87.90;;;;;;4227158;28;20321;-78
2022/03/02 01:10:28;;;;;;;9.13;7.40;;;19.60;87.70;;;;;;4230792;28;20205;-78
2022/03/02 01:12:30;;;;;;;11.02;7.20;;;19.60;87.50;;;;;;4230849;28;20221;-78
2022/03/02 01:14:33;;;;;;;8.35;7.05;;;19.60;87.70;;;;;;4230874;28;20251;-78
2022/03/02 01:16:36;;;;;;;8.48;7.57;;;19.60;87.80;;;;;;4231495;28;20275;-78
2022/03/02 01:18:38;;;;;;;7.80;6.95;;;19.50;87.80;;;;;;4231160;28;20221;-78
2022/03/02 01:20:42;;;;;;;7.80;7.00;;;19.50;87.70;;;;;;4230819;28;20218;-78
2022/03/02 01:22:44;;;;;;;8.80;6.88;;;19.50;87.60;;;;;;4231212;28;20263;-78
2022/03/02 01:24:47;;;;;;;8.88;7.40;;;19.50;87.50;;;;;;4228888;28;20221;-78
2022/03/02 01:26:49;;;;;;;8.27;7.15;;;19.60;87.80;;;;;;4231357;28;20267;-78
2022/03/02 01:28:53;;;;;;;9.10;7.50;;;19.50;87.50;;;;;;4231231;28;20222;-78
2022/03/02 01:30:56;;;;;;;7.95;7.15;;;19.50;87.60;;;;;;4230960;28;20210;-79
2022/03/02 01:32:59;;;;;;;8.85;7.07;;;19.50;87.70;;;;;;4230684;28;20274;-78
2022/03/02 01:35:01;;;;;;;9.43;7.22;;;19.50;87.50;;;;;;4231080;28;20658;-78
2022/03/02 01:37:05;;;;;;;8.65;7.10;;;19.50;87.60;;;;;;4230912;28;20214;-79
2022/03/02 01:39:08;;;;;;;8.45;7.45;;;19.50;88.00;;;;;;4230983;28;20739;-78
2022/03/02 01:41:12;;;;;;;8.13;7.28;;;19.40;87.60;;;;;;4227800;28;20765;-78
2022/03/02 01:43:15;;;;;;;8.70;7.22;;;19.50;87.60;;;;;;4229765;28;20213;-78
2022/03/02 01:45:18;;;;;;;8.85;7.82;;;19.50;87.60;;;;;;4228698;28;20658;-78
2022/03/02 01:47:20;;;;;;;9.52;7.72;;;19.50;87.70;;;;;;4230626;28;20213;-78
2022/03/02 01:49:22;;;;;;;10.23;7.80;;;19.50;87.50;;;;;;4230551;28;20259;-78
2022/03/02 01:51:25;;;;;;;8.20;7.30;;;19.50;88.30;;;;;;4230831;28;20666;-78
2022/03/02 01:53:29;;;;;;;9.48;7.88;;;19.40;87.60;;;;;;4230535;28;20730;-78
2022/03/02 01:55:32;;;;;;;9.65;7.85;;;19.50;87.70;;;;;;4230284;28;20259;-78
2022/03/02 01:57:35;;;;;;;8.77;7.43;;;19.40;87.60;;;;;;4230706;28;20217;-78
2022/03/02 01:59:38;;;;;;;8.80;7.57;;;19.40;87.70;;;;;;4229636;28;20271;-78
2022/03/02 02:01:40;;;;;;;9.43;7.85;;;19.40;87.40;;;;;;4230440;28;20238;-79
2022/03/02 02:03:43;;;;;;;9.07;7.35;;;19.40;87.40;;;;;;4229003;28;20222;-78
2022/03/02 02:05:45;;;;;;;9.63;7.78;;;19.40;87.50;;;;;;4229510;28;21302;-78
2022/03/02 02:07:48;;;;;;;8.65;7.72;;;19.40;87.30;;;;;;4228918;28;20206;-78
2022/03/02 02:09:52;;;;;;;10.40;7.93;;;19.40;87.20;;;;;;4230550;28;20221;-78
2022/03/02 02:11:55;;;;;;;9.23;7.45;;;19.30;87.40;;;;;;4230585;28;20214;-78
2022/03/02 02:13:57;;;;;;;9.45;7.80;;;19.40;87.30;;;;;;4227639;28;20221;-78
2022/03/02 02:15:59;;;;;;;8.57;7.45;;;19.30;87.40;;;;;;4229945;28;20222;-78
2022/03/02 02:18:02;;;;;;;9.48;7.95;;;19.40;87.50;;;;;;4230326;28;21058;-79
2022/03/02 02:20:06;;;;;;;11.80;8.30;;;19.30;87.40;;;;;;4230106;28;20302;-79
2022/03/02 02:22:10;;;;;;;9.65;7.70;;;19.30;87.30;;;;;;4230062;28;20758;-78
2022/03/02 02:24:12;;;;;;;9.95;7.20;;;19.30;87.30;;;;;;4230151;28;20990;-78
2022/03/02 02:26:14;;;;;;;9.32;8.32;;;19.30;87.10;;;;;;4230190;28;20213;-78
2022/03/02 02:28:22;;;;;;;9.88;8.35;;;19.30;87.50;;;;;;4222617;28;20226;-78
2022/03/02 02:30:25;;;;;;;8.45;7.30;;;19.30;87.40;;;;;;4226844;28;20235;-78
2022/03/02 02:32:28;;;;;;;9.13;8.15;;;19.30;87.40;;;;;;4229557;28;20267;-78
2022/03/02 02:34:30;;;;;;;9.93;7.70;;;19.30;87.40;;;;;;4229796;28;20229;-78
2022/03/02 02:36:32;;;;;;;9.30;8.30;;;19.30;87.40;;;;;;4230004;28;20229;-78
2022/03/02 02:38:39;;;;;;;8.80;7.90;;;19.30;87.50;;;;;;4230203;28;20214;-78
2022/03/02 02:40:42;;;;;;;8.65;7.75;;;19.30;87.20;;;;;;4227474;28;20217;-78
2022/03/02 02:42:45;;;;;;;8.32;7.45;;;19.30;87.30;;;;;;4229782;28;20237;-78
2022/03/02 02:44:48;;;;;;;9.30;7.85;;;19.30;87.40;;;;;;4230181;28;20555;-78
2022/03/02 02:46:50;;;;;;;9.15;8.25;;;19.30;87.40;;;;;;4229807;28;20218;-78
2022/03/02 02:48:52;;;;;;;9.52;8.27;;;19.30;87.50;;;;;;4228748;28;20233;-78
2022/03/02 02:50:55;;;;;;;10.00;8.18;;;19.30;87.40;;;;;;4229132;28;20218;-78
2022/03/02 02:52:59;;;;;;;8.80;7.88;;;19.20;87.30;;;;;;4229126;28;20217;-78
2022/03/02 02:55:02;;;;;;;9.88;8.07;;;19.20;87.40;;;;;;4229582;28;20217;-78
2022/03/02 02:57:05;;;;;;;10.50;8.07;;;19.20;87.40;;;;;;4227701;28;20585;-78
2022/03/02 02:59:08;;;;;;;9.32;7.20;;;19.20;87.40;;;;;;4229926;28;20213;-79
2022/03/02 03:01:10;;;;;;;9.27;8.23;;;19.20;87.40;;;;;;4228290;28;20221;-78
2022/03/02 03:03:13;;;;;;;9.50;8.13;;;19.20;87.10;;;;;;4226659;28;20287;-78
2022/03/02 03:05:17;;;;;;;10.02;8.15;;;19.20;87.40;;;;;;4229697;28;20278;-78
2022/03/02 03:07:20;;;;;;;9.00;8.10;;;19.20;87.20;;;;;;4228781;28;20214;-78
2022/03/02 03:09:22;;;;;;;11.55;8.00;;;19.20;87.10;;;;;;4229756;28;20251;-78
2022/03/02 03:11:26;;;;;;;9.38;8.35;;;19.20;87.20;;;;;;4229450;28;20218;-78
2022/03/02 03:13:28;;;;;;;8.68;7.60;;;19.20;87.10;;;;;;4229203;28;20271;-78
2022/03/02 03:15:31;;;;;;;9.20;8.02;;;19.20;87.10;;;;;;4228825;28;20283;-79
2022/03/02 03:17:34;;;;;;;10.10;7.85;;;19.20;87.00;;;;;;4229345;28;20218;-78
2022/03/02 03:19:36;;;;;;;10.23;8.25;;;19.20;87.10;;;;;;4228243;28;20619;-78
2022/03/02 03:21:38;;;;;;;9.65;8.43;;;19.20;87.20;;;;;;4229079;28;20275;-78
2022/03/02 03:23:41;;;;;;;9.82;8.00;;;19.20;87.10;;;;;;4229204;28;20223;-78
2022/03/02 03:25:43;;;;;;;9.63;8.48;;;19.20;87.00;;;;;;4229145;28;20603;-74
2022/03/02 03:27:48;;;;;;;9.85;8.52;;;19.20;87.00;;;;;;4228954;28;20266;-74
2022/03/02 03:29:50;;;;;;;8.95;7.88;;;19.20;87.10;;;;;;4228996;28;20218;-73
2022/03/02 03:31:53;;;;;;;9.48;8.32;;;19.20;87.00;;;;;;4228787;28;20221;-74
2022/03/02 03:33:55;;;;;;;8.90;7.97;;;19.20;87.00;;;;;;4228513;28;20225;-74
2022/03/02 03:35:57;;;;;;;10.93;7.80;;;19.20;87.00;;;;;;4229334;28;20214;-79
2022/03/02 03:38:00;;;;;;;9.45;8.35;;;19.10;86.80;;;;;;4229110;28;20365;-79
2022/03/02 03:40:03;;;;;;;8.60;7.72;;;19.10;87.00;;;;;;4228915;28;20210;-78
2022/03/02 03:42:06;;;;;;;10.65;8.98;;;19.10;87.00;;;;;;4226623;28;20233;-78
2022/03/02 03:44:09;;;;;;;9.43;7.80;;;19.10;87.00;;;;;;4227424;28;20267;-78
2022/03/02 03:46:12;;;;;;;9.63;8.32;;;19.10;86.90;;;;;;4228734;28;20218;-78
2022/03/02 03:48:14;;;;;;;10.00;8.32;;;19.10;87.00;;;;;;4228809;28;20267;-78
2022/03/02 03:50:17;;;;;;;10.43;8.30;;;19.10;86.80;;;;;;4228814;28;20275;-78
2022/03/02 03:52:19;;;;;;;10.15;8.45;;;19.10;86.90;;;;;;4228474;28;20206;-78
2022/03/02 03:54:21;;;;;;;9.82;8.27;;;19.10;87.00;;;;;;4229039;28;20615;-78
2022/03/02 03:56:24;;;;;;;10.50;8.65;;;19.10;87.00;;;;;;4228299;28;20274;-78
2022/03/02 03:58:26;;;;;;;9.93;8.38;;;19.10;87.10;;;;;;4222817;28;20213;-78
2022/03/02 04:00:30;;;;;;;9.10;8.20;;;19.10;87.00;;;;;;4228840;28;20225;-78
2022/03/02 04:02:32;;;;;;;9.07;8.05;;;19.10;87.00;;;;;;4226220;28;20233;-78
2022/03/02 04:04:34;;;;;;;9.00;8.10;;;19.10;87.70;;;;;;4228515;28;20266;-78
2022/03/02 04:06:37;;;;;;;8.77;7.93;;;19.10;86.80;;;;;;4228609;28;20214;-78
2022/03/02 04:08:40;;;;;;;9.20;8.20;;;19.00;86.80;;;;;;4228320;28;20259;-78
2022/03/02 04:10:45;;;;;;;14.05;9.05;;;19.10;86.90;;;;;;4228180;28;20214;-78
2022/03/02 04:12:47;;;;;;;9.27;8.38;;;19.10;86.70;;;;;;4228241;28;20262;-78
2022/03/02 04:14:50;;;;;;;10.93;8.30;;;19.10;87.00;;;;;;4225242;28;20237;-78
2022/03/02 04:16:53;;;;;;;9.40;8.40;;;19.00;86.60;;;;;;4223718;28;20376;-78
2022/03/02 04:18:56;;;;;;;8.98;8.02;;;19.00;86.80;;;;;;4226137;28;20266;-78
2022/03/02 04:20:58;;;;;;;9.25;8.15;;;19.00;86.80;;;;;;4228327;28;20674;-78
2022/03/02 04:23:00;;;;;;;11.05;9.00;;;19.00;86.60;;;;;;4228568;28;20824;-78
2022/03/02 04:25:03;;;;;;;9.07;8.05;;;19.00;86.70;;;;;;4228410;28;20221;-78
2022/03/02 04:27:05;;;;;;;9.38;8.38;;;19.00;86.70;;;;;;4228311;28;20274;-78
2022/03/02 04:29:10;;;;;;;9.52;8.40;;;19.00;86.60;;;;;;4228252;28;20217;-78
2022/03/02 04:31:12;;;;;;;9.93;8.23;;;19.00;86.60;;;;;;4227470;28;20321;-78
2022/03/02 04:33:16;;;;;;;9.70;8.70;;;19.00;86.50;;;;;;4227674;28;20310;-78
2022/03/02 04:35:18;;;;;;;8.90;8.00;;;19.10;86.60;;;;;;4228381;28;20259;-78
2022/03/02 04:37:20;;;;;;;10.32;8.00;;;19.00;86.50;;;;;;4227842;28;20719;-79
2022/03/02 04:39:23;;;;;;;8.10;7.30;;;19.00;86.40;;;;;;4228152;28;20714;-78
2022/03/02 04:41:25;;;;;;;9.30;8.30;;;19.00;87.30;;;;;;4228370;28;20222;-79
2022/03/02 04:43:28;;;;;;;10.07;8.75;;;19.00;86.70;;;;;;4228088;28;20237;-79
2022/03/02 04:45:30;;;;;;;11.32;8.50;;;18.90;86.50;;;;;;4228059;28;20584;-79
2022/03/02 04:47:33;;;;;;;9.05;8.07;;;19.00;86.60;;;;;;4228019;28;20214;-73
2022/03/02 04:49:37;;;;;;;10.35;8.82;;;18.90;87.20;;;;;;4226340;28;20225;-73
2022/03/02 04:51:40;;;;;;;9.40;8.50;;;18.90;86.60;;;;;;4227489;28;20214;-74
2022/03/02 04:53:42;;;;;;;11.25;7.88;;;18.90;86.40;;;;;;4227599;28;20235;-74
2022/03/02 04:55:45;;;;;;;9.02;8.05;;;18.90;86.50;;;;;;4223911;28;20599;-74
2022/03/02 04:57:49;;;;;;;9.20;8.30;;;18.90;86.40;;;;;;4227839;28;20210;-74
2022/03/02 04:59:52;;;;;;;9.63;8.10;;;19.00;86.60;;;;;;4227559;28;20654;-74
2022/03/02 05:01:54;;;;;;;10.65;8.40;;;18.90;87.20;;;;;;4227995;28;20213;-74
2022/03/02 05:03:57;;;;;;;10.00;8.30;;;18.90;86.40;;;;;;4227978;28;20656;-73
2022/03/02 05:06:00;;;;;;;10.68;8.70;;;18.90;86.30;;;;;;4225567;28;20222;-74
2022/03/02 05:08:03;;;;;;;11.48;8.43;;;18.90;86.90;;;;;;4227477;28;20259;-73
2022/03/02 05:10:07;;;;;;;9.18;7.97;;;18.90;86.40;;;;;;4227805;28;20275;-74
2022/03/02 05:12:10;;;;;;;9.55;8.55;;;18.90;86.40;;;;;;4227906;28;20226;-73
2022/03/02 05:14:12;;;;;;;8.77;7.80;;;18.90;86.30;;;;;;4221435;28;20244;-74
2022/03/02 05:16:14;;;;;;;10.35;8.40;;;18.90;86.20;;;;;;4225209;28;20819;-74
2022/03/02 05:18:17;;;;;;;9.70;8.55;;;18.90;86.30;;;;;;4227450;28;20222;-74
2022/03/02 05:20:21;;;;;;;9.70;8.68;;;18.80;86.20;;;;;;4227509;28;20225;-74
2022/03/02 05:22:24;;;;;;;10.52;8.38;;;18.90;86.30;;;;;;4226186;28;20226;-74
2022/03/02 05:24:27;;;;;;;9.45;8.32;;;18.80;86.20;;;;;;4227699;28;20255;-74
2022/03/02 05:26:29;;;;;;;8.77;7.82;;;18.80;86.30;;;;;;4227664;28;20214;-74
2022/03/02 05:28:32;;;;;;;11.50;8.80;;;18.90;86.40;;;;;;4227374;28;20221;-74
2022/03/02 05:30:34;;;;;;;9.07;8.13;;;18.80;86.20;;;;;;4227387;28;20263;-74
2022/03/02 05:32:37;;;;;;;10.63;8.73;;;18.80;86.30;;;;;;4227232;28;20723;-74
2022/03/02 05:34:39;;;;;;;9.15;8.25;;;18.80;86.20;;;;;;4227175;28;20238;-73
2022/03/02 05:36:41;;;;;;;10.63;8.52;;;18.80;86.20;;;;;;4225438;28;20711;-74
2022/03/02 05:38:45;;;;;;;10.55;8.65;;;18.80;86.20;;;;;;4227323;28;20278;-73
2022/03/02 05:40:47;;;;;;;11.43;8.40;;;18.80;86.20;;;;;;4227122;28;20213;-74
2022/03/02 05:42:50;;;;;;;9.55;8.20;;;18.80;86.30;;;;;;4227980;28;20263;-73
2022/03/02 05:44:52;;;;;;;10.82;8.68;;;18.80;86.20;;;;;;4229413;28;20286;-74
2022/03/02 05:46:55;;;;;;;8.90;7.90;;;18.80;86.30;;;;;;4229321;28;20217;-74
2022/03/02 05:48:57;;;;;;;10.18;8.45;;;18.80;86.30;;;;;;4229593;28;20225;-74
2022/03/02 05:51:00;;;;;;;10.35;8.05;;;18.80;86.30;;;;;;4229136;28;20213;-74
2022/03/02 05:53:02;;;;;;;9.00;7.95;;;18.80;86.30;;;;;;4226876;28;20217;-74
2022/03/02 05:55:08;;;;;;;10.55;8.32;;;18.70;86.20;;;;;;4230357;28;20214;-74
2022/03/02 05:57:11;;;;;;;10.73;8.30;;;18.60;86.80;;;;;;4227503;28;20217;-74
2022/03/02 05:59:17;;;;;;;10.02;8.82;;;18.60;86.80;;;;;;4230445;28;20260;-74
2022/03/02 06:01:19;;;;;;;11.40;8.40;;;18.70;86.50;;;;;;4230228;28;20254;-74
2022/03/02 06:03:21;;;;;;;8.98;8.05;;;18.80;86.30;;;;;;4230149;28;20286;-73
2022/03/02 06:05:24;;;;;;;8.88;7.90;;;18.90;86.80;;;;;;4224293;28;20214;-74
2022/03/02 06:07:26;;;;;;;9.90;8.38;;;18.90;87.10;;;;;;4227815;28;20230;-74
2022/03/02 06:09:29;;;;;;;9.73;8.25;;;18.90;88.90;;;;;;4230152;28;20221;-74
2022/03/02 06:11:35;;;;;;;9.93;8.35;;;18.90;90.00;;;;;;4229975;28;20279;-74
2022/03/02 06:13:38;;;;;;;10.70;8.20;;;18.90;90.30;;;;;;4226902;28;20240;-74
2022/03/02 06:15:41;;;;;;;8.88;7.97;;;18.90;90.30;;;;;;4229651;28;20221;-74
2022/03/02 06:17:44;;;;;;;10.07;8.18;;;19.00;90.40;;;;;;4230262;28;20236;-74
2022/03/02 06:19:47;;;;;;;10.38;8.00;;;19.00;90.60;;;;;;4229626;28;20291;-74
2022/03/02 06:21:51;;;;;;;9.20;8.23;;;18.90;90.70;;;;;;4229908;28;20606;-74
2022/03/02 06:23:53;;;;;;;9.32;8.00;;;19.00;90.80;;;;;;4229274;28;20262;-74
2022/03/02 06:25:56;;;;;;;9.43;7.80;;;19.00;90.80;;;;;;4229527;28;20653;-74
2022/03/02 06:28:00;;;;;;;9.88;8.38;;;19.00;90.80;;;;;;4229973;28;20217;-74
2022/03/02 06:30:02;;;;;;;8.88;7.55;;;19.10;90.80;;;;;;4229616;28;20218;-74
2022/03/02 06:32:06;;;;;;;9.07;7.95;;;19.10;90.90;;;;;;4228607;28;20217;-74
2022/03/02 06:34:08;;;;;;;9.32;8.13;;;19.10;90.90;;;;;;4229865;28;20580;-74
2022/03/02 06:36:10;;;;;;;9.57;8.02;;;19.10;91.10;;;;;;4227516;28;20251;-74
2022/03/02 06:38:13;;;;;;;8.65;7.80;;;19.10;91.30;;;;;;4229594;28;20225;-74
2022/03/02 06:40:15;;;;;;;8.93;7.80;;;19.20;91.00;;;;;;4229543;28;20206;-74
2022/03/02 06:42:22;;;;;;;10.43;7.32;;;19.10;90.90;;;;;;4229605;28;20222;-74
2022/03/02 06:44:30;;;;;;;8.45;7.65;;;19.20;91.10;;;;;;4228949;28;20615;-74
2022/03/02 06:46:41;;;;;;;8.63;7.72;;;19.20;91.00;;;;;;4228933;28;20665;-74
2022/03/02 06:48:51;;;;;;;10.90;7.82;;;19.20;91.00;;;;;;4229445;28;20218;-74
2022/03/02 06:50:59;;;;;;;8.52;7.72;;;19.20;91.00;;;;;;4228249;28;20270;-74
2022/03/02 06:53:03;;;;;;;8.40;7.60;;;19.20;91.00;;;;;;4229462;28;20221;-74
2022/03/02 06:55:08;;;;;;;8.23;7.35;;;19.20;91.00;;;;;;4228909;28;20206;-74
2022/03/02 06:57:13;;;;;;;8.77;7.25;;;19.30;91.00;;;;;;4229737;28;20221;-74
2022/03/02 06:59:25;;;;;;;8.80;7.25;;;19.30;90.90;;;;;;4229432;28;20662;-74
2022/03/02 07:01:30;;;;;;;9.10;7.22;;;19.30;91.10;;;;;;4229409;28;20268;-74
2022/03/02 07:03:41;;;;;;;8.40;7.53;;;19.30;91.10;;;;;;4229236;28;20662;-74
2022/03/02 07:05:43;;;;;;;9.98;7.85;;;19.30;91.10;;;;;;4227625;28;20218;-74
2022/03/02 07:07:47;;;;;;;8.85;7.88;;;19.30;91.10;;;;;;4228871;28;20229;-74
2022/03/02 07:09:50;;;;;;;8.18;7.38;;;19.40;91.10;;;;;;4229247;28;20685;-74
2022/03/02 07:11:52;;;;;;;8.25;7.13;;;19.40;91.00;;;;;;4229333;28;20225;-74
2022/03/02 07:13:55;;;;;;;8.98;7.38;;;19.40;91.10;;;;;;4228836;28;20279;-74
2022/03/02 07:16:00;;;;;;;7.70;6.93;;;19.40;91.10;;;;;;4228858;28;20251;-74
2022/03/02 07:18:07;;;;;;;8.07;7.28;;;19.40;91.20;;;;;;4228900;28;20267;-74
2022/03/02 07:20:11;;;;;;;7.90;7.10;;;19.40;91.10;;;;;;4229298;28;20588;-74
2022/03/02 07:22:18;;;;;;;7.80;6.93;;;19.40;91.20;;;;;;4228021;28;20214;-74
2022/03/02 07:24:23;;;;;;;9.25;7.70;;;19.40;91.10;;;;;;4228397;28;20242;-74
2022/03/02 07:26:28;;;;;;;8.00;7.05;;;19.50;91.00;;;;;;4228769;28;20254;-74
2022/03/02 07:28:32;;;;;;;8.85;7.13;;;19.50;91.20;;;;;;4229000;28;20218;-74
2022/03/02 07:30:34;;;;;;;7.93;6.93;;;19.50;91.10;;;;;;4229028;28;20221;-74
2022/03/02 07:32:41;;;;;;;8.40;7.43;;;19.50;91.10;;;;;;4229134;28;20259;-74
2022/03/02 07:34:46;;;;;;;8.05;6.97;;;19.50;91.20;;;;;;4228662;28;20202;-74
2022/03/02 07:36:49;;;;;;;9.18;7.57;;;19.50;91.10;;;;;;4228406;28;20213;-74
2022/03/02 07:38:52;;;;;;;7.97;7.18;;;19.60;91.10;;;;;;4224437;28;20213;-74
2022/03/02 07:40:55;;;;;;;8.48;7.10;;;19.60;91.00;;;;;;4228793;28;20221;-74
2022/03/02 07:42:57;;;;;;;8.05;7.25;;;19.60;91.20;;;;;;4227111;28;20209;-74
2022/03/02 07:45:00;;;;;;;9.98;8.18;;;19.60;90.00;;;;;;4224414;27;20241;-73
2022/03/02 07:47:03;;;;;;;8.40;7.10;;;19.60;89.80;;;;;;4221805;28;20283;-73
2022/03/02 07:49:05;;;;;;;8.23;6.63;;;19.60;89.00;;;;;;4229873;28;20619;-73
2022/03/02 07:51:10;;;;;;;7.47;6.70;;;19.80;90.40;;;;;;4228356;28;20217;-73
2022/03/02 07:53:17;;;;;;;8.18;7.35;;;19.90;90.50;;;;;;4223030;28;20949;-73
2022/03/02 07:55:20;;;;;;;8.05;7.05;;;19.90;90.00;;;;;;4224307;28;20291;-74
2022/03/02 07:57:23;;;;;;;10.05;7.90;;;20.00;88.90;;;;;;4226917;28;20221;-73
2022/03/02 07:59:26;;;;;;;8.43;6.93;;;20.10;87.60;;;;;;4228543;28;20213;-73
2022/03/02 08:01:29;;;;;;;8.60;7.70;;;20.30;86.80;;;;;;4225822;28;20217;-73
2022/03/02 08:03:35;;;;;;;9.25;7.38;;;20.30;85.70;;;;;;4215777;28;20209;-74
2022/03/02 08:05:38;;;;;;;11.85;7.25;;;20.30;85.80;;;;;;4222668;28;20282;-73
2022/03/02 08:07:41;;;;;;;9.02;7.35;;;20.30;87.10;;;;;;4224635;28;20235;-74
2022/03/02 08:09:44;;;;;;;9.05;7.57;;;20.50;87.00;;;;;;4224982;28;20214;-74
2022/03/02 08:11:48;;;;;;;8.13;7.10;;;20.50;86.90;;;;;;4223795;28;20310;-74
2022/03/02 08:13:50;;;;;;;7.72;6.85;;;20.60;86.70;;;;;;4217689;27;20244;-73
2022/03/02 08:15:53;;;;;;;8.38;7.30;;;20.70;86.30;;;;;;4225299;28;20294;-72
2022/03/02 08:17:56;;;;;;;9.95;7.45;;;20.80;86.40;;;;;;4224714;28;20247;-72
2022/03/02 08:19:58;;;;;;;8.88;7.65;;;20.80;85.90;;;;;;4221496;28;20686;-72
2022/03/02 08:22:05;;;;;;;8.93;7.53;;;20.90;86.70;;;;;;4217312;28;20218;-73
2022/03/02 08:24:12;;;;;;;9.05;7.70;;;20.90;85.90;;;;;;4218985;28;20556;-73
2022/03/02 08:26:19;;;;;;;9.30;7.60;;;20.90;85.80;;;;;;4222094;28;20628;-72
2022/03/02 08:28:25;;;;;;;8.18;7.22;;;20.90;85.40;;;;;;4221818;28;20218;-73
2022/03/02 08:30:32;;;;;;;10.73;7.63;;;20.90;87.30;;;;;;4220630;28;20267;-73
2022/03/02 08:32:37;;;;;;;9.00;7.55;;;21.00;85.80;;;;;;4223487;28;20220;-73
2022/03/02 08:34:44;;;;;;;9.80;7.78;;;21.10;85.60;;;;;;4218064;28;20262;-73
2022/03/02 08:36:47;;;;;;;13.10;8.40;;;21.10;85.00;;;;;;4216548;28;20264;-72
2022/03/02 08:38:51;;;;;;;10.60;7.05;;;21.10;85.50;;;;;;4221874;28;20217;-72
2022/03/02 08:40:55;;;;;;;10.77;7.28;;;21.10;86.20;;;;;;4212389;28;20243;-73
2022/03/02 08:43:00;;;;;;;9.50;7.43;;;21.10;87.70;;;;;;4219224;28;20274;-72
2022/03/02 08:45:04;;;;;;;66.43;20.25;;;21.20;87.00;;;;;;4222305;28;20242;-74
2022/03/02 08:47:07;;;;;;;36.42;14.27;;;21.20;85.50;;;;;;4220549;28;20221;-74
2022/03/02 08:49:10;;;;;;;72.97;23.15;;;21.20;85.40;;;;;;4225879;28;20282;-73
2022/03/02 08:51:12;;;;;;;156.50;30.48;;;21.30;85.10;;;;;;4223357;28;20255;-73
2022/03/02 08:53:17;;;;;;;200.88;42.75;;;21.30;86.50;;;;;;4222454;28;20221;-73
2022/03/02 08:55:19;;;;;;;246.82;53.22;;;21.40;87.40;;;;;;4210913;28;20282;-73
2022/03/02 08:57:24;;;;;;;319.80;68.88;;;21.40;86.40;;;;;;4216941;28;20205;-74
2022/03/02 08:59:28;;;;;;;182.32;37.20;;;21.40;85.20;;;;;;4218672;28;20233;-73
2022/03/02 09:01:34;;;;;;;161.40;34.33;;;21.40;86.30;;;;;;4219020;28;20283;-74
2022/03/02 09:03:37;;;;;;;175.98;37.45;;;21.50;87.20;;;;;;4214932;28;20245;-73
2022/03/02 09:05:40;;;;;;;189.52;38.38;;;21.50;86.50;;;;;;4217920;28;20290;-72
2022/03/02 09:07:42;;;;;;;128.02;31.08;;;21.60;85.90;;;;;;4221446;28;20230;-74
2022/03/02 09:09:45;;;;;;;152.32;34.70;;;21.60;85.20;;;;;;4220166;28;20218;-73
2022/03/02 09:11:47;;;;;;;108.43;26.05;;;21.50;84.40;;;;;;4221807;28;20211;-72
2022/03/02 09:13:51;;;;;;;127.05;30.05;;;21.60;85.50;;;;;;4221380;28;20217;-72
2022/03/02 09:15:53;;;;;;;86.13;24.02;;;21.60;87.30;;;;;;4216657;28;20233;-72
2022/03/02 09:17:56;;;;;;;110.32;26.90;;;21.60;88.10;;;;;;4224489;28;20286;-73
2022/03/02 09:19:58;;;;;;;139.85;30.77;;;21.70;86.80;;;;;;4226740;27;20739;-73
2022/03/02 09:22:01;;;;;;;131.57;33.67;;;21.60;87.20;;;;;;4224649;28;20305;-71
2022/03/02 09:24:05;;;;;;;144.23;32.38;;;21.60;86.50;;;;;;4224417;27;20214;-72
2022/03/02 09:26:09;;;;;;;182.85;39.97;;;21.70;87.50;;;;;;4224616;28;20627;-72
2022/03/02 09:28:11;;;;;;;223.90;45.42;;;21.70;87.40;;;;;;4226998;28;20225;-72
2022/03/02 09:30:15;;;;;;;235.32;52.55;;;21.70;87.30;;;;;;4225733;27;21967;-72
2022/03/02 09:32:20;;;;;;;289.50;61.97;;;21.70;87.30;;;;;;4225051;28;20263;-72
2022/03/02 09:34:27;;;;;;;449.67;91.45;;;21.70;87.50;;;;;;4224950;28;20213;-73
2022/03/02 09:36:29;;;;;;;332.33;69.15;;;21.80;87.10;;;;;;4224508;27;20262;-73
2022/03/02 09:38:33;;;;;;;312.40;62.30;;;21.90;87.20;;;;;;4222259;28;20213;-73
2022/03/02 09:40:35;;;;;;;358.80;73.82;;;21.90;87.00;;;;;;4225546;28;20803;-73
2022/03/02 09:42:44;;;;;;;385.90;90.43;;;21.90;87.50;;;;;;4224076;27;20213;-73
2022/03/02 09:44:49;;;;;;;346.70;76.80;;;21.90;86.30;;;;;;4224504;28;20646;-74
2022/03/02 09:46:56;;;;;;;375.77;91.25;;;21.90;85.70;;;;;;4225006;28;20323;-73
2022/03/02 09:49:05;;;;;;;227.90;49.30;;;21.90;85.00;;;;;;4223392;28;20214;-73
2022/03/02 09:51:09;;;;;;;309.80;68.05;;;21.90;86.60;;;;;;4221645;28;20208;-72
2022/03/02 09:53:14;;;;;;;369.92;74.68;;;21.90;87.50;;;;;;4222277;28;20479;-73
2022/03/02 09:55:21;;;;;;;244.18;55.25;;;21.90;86.70;;;;;;4218813;28;20248;-73
2022/03/02 09:57:24;;;;;;;206.02;50.78;;;22.00;87.00;;;;;;4226264;28;20212;-74
2022/03/02 09:59:27;;;;;;;220.02;51.13;;;22.00;87.00;;;;;;4223132;28;20222;-72
2022/03/02 10:01:33;;;;;;;198.85;45.13;;;22.00;87.60;;;;;;4221426;28;20218;-74
2022/03/02 10:03:38;;;;;;;180.27;46.05;;;22.00;88.80;;;;;;4224001;27;20717;-74
2022/03/02 10:05:45;;;;;;;201.55;48.47;;;22.00;88.80;;;;;;4225464;27;20230;-74
2022/03/02 10:07:58;;;;;;;221.63;47.88;;;22.00;87.80;;;;;;4225559;27;20217;-75
2022/03/02 10:10:07;;;;;;;205.40;48.97;;;22.00;87.80;;;;;;4226483;27;20213;-76
2022/03/02 10:12:11;;;;;;;174.77;44.47;;;22.10;87.90;;;;;;4223675;27;20270;-75
2022/03/02 10:14:13;;;;;;;206.82;50.63;;;22.20;87.60;;;;;;4222227;27;20706;-73
2022/03/02 10:16:21;;;;;;;170.85;44.20;;;22.10;86.40;;;;;;4224807;27;20608;-74
2022/03/02 10:18:27;;;;;;;193.85;46.83;;;22.10;88.50;;;;;;4223663;27;20703;-74
2022/03/02 10:20:31;;;;;;;166.02;43.45;;;22.10;88.60;;;;;;4224785;27;20218;-73
2022/03/02 10:22:56;;;;;;;191.70;44.67;;;22.20;88.60;;;;;;4224886;28;20726;-77
2022/03/02 10:25:04;;;;;;;179.23;46.63;;;22.20;88.80;;;;;;4228745;28;20739;-77
2022/03/02 10:27:07;;;;;;;162.25;42.30;;;22.20;88.00;;;;;;4228746;28;20302;-77
2022/03/02 10:29:17;;;;;;;182.90;44.35;;;22.30;87.90;;;;;;4225495;28;20218;-78
2022/03/02 10:31:27;;;;;;;152.55;40.25;;;22.30;88.00;;;;;;4218900;28;20311;-79
2022/03/02 10:33:37;;;;;;;153.68;41.75;;;22.30;88.30;;;;;;4223108;27;20286;-80
2022/03/02 10:35:49;;;;;;;147.63;40.65;;;22.30;88.00;;;;;;4224132;28;20213;-79
2022/03/02 10:37:54;;;;;;;164.23;39.65;;;22.30;88.90;;;;;;4224161;28;20957;-79